createdAt,value
2018-02-09T00:02:20.293Z,44.67
2018-02-09T00:04:47.790Z,46.50
2018-02-09T00:07:15.291Z,44.40
2018-02-09T00:09:42.786Z,44.95
2018-02-09T00:12:10.384Z,46.05
2018-02-09T00:14:38.755Z,47.85
2018-02-09T00:17:07.241Z,47.85
2018-02-09T00:19:35.498Z,43.95
2018-02-09T00:22:03.758Z,48.45
2018-02-09T00:24:31.450Z,44.85
2018-02-09T00:26:59.733Z,46.78
2018-02-09T00:29:28.004Z,46.17
2018-02-09T00:31:56.266Z,43.83
2018-02-09T00:34:23.759Z,46.55
2018-02-09T00:36:51.267Z,46.42
2018-02-09T00:39:18.760Z,44.75
2018-02-09T00:41:47.235Z,45.83
2018-02-09T00:44:15.495Z,45.05
2018-02-09T00:46:42.987Z,45.03
2018-02-09T00:49:10.489Z,45.17
2018-02-09T00:51:37.987Z,47.13
2018-02-09T00:54:06.248Z,46.65
2018-02-09T00:56:33.739Z,43.08
2018-02-09T00:59:01.239Z,45.53
2018-02-09T01:01:28.942Z,42.42
2018-02-09T01:03:57.203Z,43.13
2018-02-09T01:06:24.695Z,42.38
2018-02-09T01:08:52.195Z,43.70
2018-02-09T01:11:19.678Z,42.13
2018-02-09T01:13:47.494Z,45.30
2018-02-09T01:16:15.115Z,42.85
2018-02-09T01:18:43.369Z,42.60
2018-02-09T01:21:10.863Z,44.63
2018-02-09T01:23:38.358Z,42.60
2018-02-09T01:26:06.070Z,48.60
2018-02-09T01:28:34.326Z,41.83
2018-02-09T01:31:01.835Z,42.38
2018-02-09T01:33:29.328Z,43.67
2018-02-09T01:35:56.822Z,47.28
2018-02-09T01:38:25.205Z,44.40
2018-02-09T01:40:53.462Z,47.95
2018-02-09T01:43:21.138Z,46.37
2018-02-09T01:45:49.404Z,46.05
2018-02-09T01:48:16.894Z,42.38
2018-02-09T01:50:44.388Z,44.38
2018-02-09T01:53:11.879Z,43.58
2018-02-09T01:55:39.486Z,45.65
2018-02-09T01:58:06.982Z,45.30
2018-02-09T02:00:34.485Z,45.85
2018-02-09T02:03:01.987Z,45.12
2018-02-09T02:05:29.478Z,48.13
2018-02-09T02:07:57.738Z,44.50
2018-02-09T02:10:25.252Z,45.55
2018-02-09T02:12:52.739Z,42.40
2018-02-09T02:15:20.242Z,46.25
2018-02-09T02:17:47.742Z,47.83
2018-02-09T02:20:15.238Z,47.88
2018-02-09T02:22:42.742Z,45.58
2018-02-09T02:25:10.238Z,44.65
2018-02-09T02:27:38.502Z,46.05
2018-02-09T02:30:06.004Z,45.20
2018-02-09T02:32:34.258Z,46.55
2018-02-09T02:35:01.747Z,47.10
2018-02-09T02:37:29.258Z,46.72
2018-02-09T02:39:56.751Z,45.35
2018-02-09T02:42:25.019Z,46.53
2018-02-09T02:44:53.286Z,46.08
2018-02-09T02:47:20.791Z,46.13
2018-02-09T02:49:48.283Z,46.63
2018-02-09T02:52:15.775Z,43.50
2018-02-09T02:54:44.031Z,46.65
2018-02-09T02:57:11.523Z,46.47
2018-02-09T02:59:39.031Z,45.75
2018-02-09T03:02:06.526Z,46.10
2018-02-09T03:04:34.051Z,47.30
2018-02-09T03:07:01.551Z,49.20
2018-02-09T03:09:29.818Z,48.65
2018-02-09T03:11:58.087Z,49.58
2018-02-09T03:14:25.574Z,49.08
2018-02-09T03:16:53.066Z,47.67
2018-02-09T03:19:20.568Z,48.03
2018-02-09T03:21:48.822Z,51.08
2018-02-09T03:24:16.327Z,49.30
2018-02-09T03:26:43.864Z,48.85
2018-02-09T03:29:12.130Z,48.67
2018-02-09T03:31:40.402Z,49.65
2018-02-09T03:34:07.918Z,48.65
2018-02-09T03:36:35.422Z,49.85
2018-02-09T03:39:03.697Z,49.17
2018-02-09T03:41:31.187Z,49.00
2018-02-09T03:43:58.691Z,47.88
2018-02-09T03:46:26.191Z,48.83
2018-02-09T03:48:54.442Z,47.62
2018-02-09T03:51:21.946Z,50.45
2018-02-09T03:53:49.470Z,50.20
2018-02-09T03:56:17.847Z,50.90
2018-02-09T03:58:46.106Z,51.30
2018-02-09T04:01:13.612Z,46.08
2018-02-09T04:03:41.125Z,47.50
2018-02-09T04:06:08.610Z,48.03
2018-02-09T04:08:36.882Z,50.78
2018-02-09T04:11:05.154Z,50.40
2018-02-09T04:13:33.421Z,51.42
2018-02-09T04:16:00.916Z,48.75
2018-02-09T04:18:28.406Z,53.22
2018-02-09T04:20:55.894Z,48.00
2018-02-09T04:23:23.579Z,49.33
2018-02-09T04:25:51.851Z,49.33
2018-02-09T04:28:20.106Z,49.75
2018-02-09T04:30:47.598Z,49.05
2018-02-09T04:33:15.094Z,46.28
2018-02-09T04:35:42.614Z,49.08
2018-02-09T04:38:10.258Z,51.85
2018-02-09T04:40:38.531Z,50.67
2018-02-09T04:43:06.787Z,48.10
2018-02-09T04:45:34.282Z,49.10
2018-02-09T04:48:01.790Z,50.55
2018-02-09T04:50:29.282Z,48.60
2018-02-09T04:52:57.538Z,50.78
2018-02-09T04:55:25.042Z,49.35
2018-02-09T04:57:52.531Z,49.80
2018-02-09T05:00:20.028Z,48.45
2018-02-09T05:02:48.410Z,49.65
2018-02-09T05:05:16.666Z,50.50
2018-02-09T05:07:44.158Z,50.10
2018-02-09T05:10:11.803Z,50.58
2018-02-09T05:12:40.063Z,49.05
2018-02-09T05:15:07.555Z,50.88
2018-02-09T05:17:35.043Z,49.60
2018-02-09T05:20:02.536Z,51.17
2018-02-09T05:22:30.214Z,53.78
2018-02-09T05:24:58.478Z,51.95
2018-02-09T05:27:25.982Z,49.20
2018-02-09T05:29:53.479Z,48.58
2018-02-09T05:32:20.975Z,48.85
2018-02-09T05:34:49.247Z,49.42
2018-02-09T05:37:17.507Z,49.63
2018-02-09T05:39:45.011Z,50.17
2018-02-09T05:42:12.511Z,50.15
2018-02-09T05:44:40.134Z,49.75
2018-02-09T05:47:07.650Z,53.10
2018-02-09T05:49:35.906Z,50.60
2018-02-09T05:52:03.419Z,53.87
2018-02-09T05:54:30.906Z,53.25
2018-02-09T05:56:58.406Z,53.58
2018-02-09T05:59:26.670Z,51.00
2018-02-09T06:01:54.228Z,51.15
2018-02-09T06:04:21.687Z,52.60
2018-02-09T06:06:49.279Z,54.88
2018-02-09T06:09:16.785Z,53.13
2018-02-09T06:11:44.274Z,54.78
2018-02-09T06:14:12.530Z,54.30
2018-02-09T06:16:40.143Z,52.50
2018-02-09T06:19:07.652Z,54.42
2018-02-09T06:21:35.154Z,55.08
2018-02-09T06:24:02.650Z,50.85
2018-02-09T06:26:30.142Z,53.10
2018-02-09T06:28:58.406Z,53.92
2018-02-09T06:31:26.011Z,54.22
2018-02-09T06:33:53.523Z,52.78
2018-02-09T06:36:21.010Z,51.83
2018-02-09T06:38:48.506Z,52.35
2018-02-09T06:41:16.002Z,55.83
2018-02-09T06:43:43.494Z,54.70
2018-02-09T06:46:11.003Z,57.42
2018-02-09T06:48:38.503Z,57.42
2018-02-09T06:51:06.974Z,56.50
2018-02-09T06:53:35.234Z,56.05
2018-02-09T06:56:02.730Z,54.83
2018-02-09T06:58:30.231Z,53.87
2018-02-09T07:00:57.723Z,53.92
2018-02-09T07:03:26.206Z,53.15
2018-02-09T07:05:54.471Z,52.95
2018-02-09T07:08:22.736Z,54.35
2018-02-09T07:10:50.430Z,53.03
2018-02-09T07:13:18.690Z,53.42
2018-02-09T07:15:47.162Z,55.60
2018-02-09T07:18:14.843Z,52.38
2018-02-09T07:20:43.098Z,52.95
2018-02-09T07:23:10.598Z,50.00
2018-02-09T07:25:38.130Z,52.60
2018-02-09T07:28:06.506Z,51.55
2018-02-09T07:30:34.775Z,55.72
2018-02-09T07:33:03.166Z,53.78
2018-02-09T07:35:31.430Z,54.08
2018-02-09T07:37:59.710Z,52.78
2018-02-09T07:40:27.203Z,54.75
2018-02-09T07:42:54.710Z,54.65
2018-02-09T07:45:22.217Z,52.13
2018-02-09T07:47:49.723Z,51.10
2018-02-09T07:50:17.223Z,54.63
2018-02-09T07:52:44.738Z,52.83
2018-02-09T07:55:12.250Z,53.50
2018-02-09T07:57:39.759Z,52.90
2018-02-09T08:00:07.367Z,50.28
2018-02-09T08:02:34.857Z,51.33
2018-02-09T08:05:02.354Z,52.45
2018-02-09T08:07:30.795Z,53.20
2018-02-09T08:09:58.286Z,51.45
2018-02-09T08:12:25.854Z,50.72
2018-02-09T08:14:54.123Z,54.10
2018-02-09T08:17:21.835Z,51.40
2018-02-09T08:19:49.474Z,50.38
2018-02-09T08:22:17.122Z,49.83
2018-02-09T08:24:45.390Z,52.25
2018-02-09T08:27:13.650Z,51.83
2018-02-09T08:29:41.146Z,53.97
2018-02-09T08:32:08.642Z,50.90
2018-02-09T08:34:36.189Z,47.33
2018-02-09T08:37:03.690Z,48.25
2018-02-09T08:39:31.203Z,46.03
2018-02-09T08:41:59.722Z,46.75
2018-02-09T08:44:27.215Z,48.53
2018-02-09T08:46:54.702Z,47.17
2018-02-09T08:49:22.207Z,45.70
2018-02-09T08:51:49.704Z,43.58
2018-02-09T08:54:17.211Z,43.10
2018-02-09T08:56:44.722Z,45.97
2018-02-09T08:59:12.371Z,45.70
2018-02-09T09:01:39.874Z,44.55
2018-02-09T09:04:07.379Z,44.40
2018-02-09T09:06:35.862Z,42.53
2018-02-09T09:09:04.118Z,44.13
2018-02-09T09:11:32.394Z,42.75
2018-02-09T09:14:00.071Z,45.50
2018-02-09T09:16:28.322Z,44.47
2018-02-09T09:18:56.011Z,48.17
2018-02-09T09:21:24.278Z,45.85
2018-02-09T09:23:52.540Z,50.03
2018-02-09T09:26:20.048Z,45.72
2018-02-09T09:28:47.543Z,48.60
2018-02-09T09:31:15.030Z,49.78
2018-02-09T09:33:43.314Z,44.63
2018-02-09T09:36:11.570Z,45.38
2018-02-09T09:38:39.069Z,43.80
2018-02-09T09:41:06.579Z,49.67
2018-02-09T09:43:34.094Z,51.37
2018-02-09T09:46:01.603Z,49.00
2018-02-09T09:48:29.091Z,49.85
2018-02-09T09:50:56.611Z,48.15
2018-02-09T09:53:24.099Z,44.70
2018-02-09T09:55:52.358Z,44.38
2018-02-09T09:58:19.853Z,46.72
2018-02-09T10:00:47.364Z,48.58
2018-02-09T10:03:16.364Z,48.63
2018-02-09T10:05:43.860Z,45.40
2018-02-09T10:08:11.359Z,46.75
2018-02-09T10:10:38.854Z,46.75
2018-02-09T10:13:07.335Z,49.17
2018-02-09T10:15:35.595Z,47.45
2018-02-09T10:18:03.097Z,49.58
2018-02-09T10:20:30.590Z,48.20
2018-02-09T10:22:58.095Z,45.38
2018-02-09T10:25:26.351Z,45.15
2018-02-09T10:27:54.739Z,43.67
2018-02-09T10:30:23.036Z,44.38
2018-02-09T10:32:50.535Z,46.30
2018-02-09T10:35:18.034Z,45.60
2018-02-09T10:37:46.294Z,45.75
2018-02-09T10:40:13.792Z,46.17
2018-02-09T10:42:41.296Z,47.92
2018-02-09T10:45:08.799Z,49.72
2018-02-09T10:47:36.291Z,50.20
2018-02-09T10:50:03.794Z,45.88
2018-02-09T10:52:32.067Z,47.62
2018-02-09T10:55:00.335Z,43.30
2018-02-09T10:57:27.831Z,44.58
2018-02-09T10:59:55.470Z,41.92
2018-02-09T11:02:23.950Z,47.53
2018-02-09T11:04:51.462Z,46.25
2018-02-09T11:07:18.960Z,45.03
2018-02-09T11:09:47.233Z,41.85
2018-02-09T11:12:14.760Z,42.70
2018-02-09T11:14:42.230Z,43.50
2018-02-09T11:17:09.735Z,45.90
2018-02-09T11:19:37.218Z,44.35
2018-02-09T11:22:04.707Z,43.03
2018-02-09T11:24:32.200Z,43.87
2018-02-09T11:27:00.471Z,41.15
2018-02-09T11:29:28.750Z,43.92
2018-02-09T11:31:57.023Z,42.00
2018-02-09T11:34:25.283Z,45.40
2018-02-09T11:36:52.962Z,44.30
2018-02-09T11:39:21.444Z,42.33
2018-02-09T11:41:49.703Z,41.92
2018-02-09T11:44:17.198Z,45.08
2018-02-09T11:46:44.696Z,40.60
2018-02-09T11:49:12.206Z,39.88
2018-02-09T11:51:39.709Z,40.92
2018-02-09T11:54:07.210Z,40.22
2018-02-09T11:56:35.519Z,42.17
2018-02-09T11:59:03.042Z,40.65
2018-02-09T12:01:31.303Z,39.65
2018-02-09T12:03:58.803Z,41.72
2018-02-09T12:06:26.334Z,40.67
2018-02-09T12:08:54.599Z,41.80
2018-02-09T12:11:22.111Z,39.30
2018-02-09T12:13:49.602Z,37.15
2018-02-09T12:16:17.094Z,39.25
2018-02-09T12:18:45.350Z,39.58
2018-02-09T12:21:12.858Z,40.30
2018-02-09T12:23:40.354Z,39.45
2018-02-09T12:26:07.854Z,39.08
2018-02-09T12:28:35.371Z,38.65
2018-02-09T12:31:02.980Z,36.50
2018-02-09T12:33:30.497Z,38.45
2018-02-09T12:35:59.538Z,37.42
2018-02-09T12:38:27.168Z,38.33
2018-02-09T12:40:55.438Z,37.60
2018-02-09T12:43:23.704Z,34.75
2018-02-09T12:45:51.199Z,40.10
2018-02-09T12:48:18.699Z,39.58
2018-02-09T12:50:46.201Z,36.28
2018-02-09T12:53:14.471Z,37.42
2018-02-09T12:55:42.743Z,36.90
2018-02-09T12:58:11.010Z,37.08
2018-02-09T13:00:38.505Z,34.33
2018-02-09T13:03:05.998Z,34.55
2018-02-09T13:05:33.509Z,37.33
2018-02-09T13:08:01.770Z,33.28
2018-02-09T13:10:30.027Z,32.40
2018-02-09T13:13:05.191Z,37.95
2018-02-09T13:15:33.692Z,37.08
2018-02-09T13:18:01.187Z,36.10
2018-02-09T13:20:28.688Z,36.42
2018-02-09T13:23:09.022Z,34.50
2018-02-09T13:25:36.527Z,35.15
2018-02-09T13:28:04.026Z,33.90
2018-02-09T13:30:31.519Z,32.58
2018-02-09T13:33:11.840Z,38.15
2018-02-09T13:35:39.330Z,34.42
2018-02-09T13:38:07.592Z,37.20
2018-02-09T13:40:35.274Z,35.40
2018-02-09T13:43:03.535Z,36.80
2018-02-09T13:45:32.034Z,35.55
2018-02-09T13:48:00.302Z,37.63
2018-02-09T13:50:28.572Z,37.78
2018-02-09T13:52:56.839Z,36.50
2018-02-09T13:55:24.338Z,32.88
2018-02-09T13:57:51.839Z,31.40
2018-02-09T14:00:19.343Z,33.83
2018-02-09T14:02:47.603Z,33.10
2018-02-09T14:05:15.863Z,35.28
2018-02-09T14:07:43.554Z,36.10
2018-02-09T14:10:11.815Z,36.63
2018-02-09T14:12:39.307Z,39.08
2018-02-09T14:15:06.814Z,39.13
2018-02-09T14:17:34.325Z,38.22
2018-02-09T14:20:01.831Z,33.90
2018-02-09T14:22:29.346Z,37.03
2018-02-09T14:24:56.839Z,32.78
2018-02-09T14:27:24.326Z,35.17
2018-02-09T14:29:52.592Z,32.90
2018-02-09T14:32:20.079Z,37.28
2018-02-09T14:47:52.936Z,36.75
2018-02-09T14:50:21.190Z,35.25
2018-02-09T14:52:48.699Z,33.08
2018-02-09T14:55:16.226Z,33.20
2018-02-09T14:57:44.497Z,33.95
2018-02-09T15:00:11.998Z,35.22
2018-02-09T15:02:39.494Z,36.80
2018-02-09T15:05:06.999Z,38.42
2018-02-09T15:07:34.494Z,38.53
2018-02-09T15:10:02.103Z,36.58
2018-02-09T15:12:30.362Z,35.47
2018-02-09T15:14:58.635Z,34.97
2018-02-09T15:17:27.825Z,33.50
2018-02-09T15:19:55.319Z,34.28
2018-02-09T15:22:23.576Z,33.90
2018-02-09T15:24:51.837Z,35.05
2018-02-09T15:27:19.443Z,35.50
2018-02-09T15:29:46.942Z,35.20
2018-02-09T15:32:14.454Z,34.67
2018-02-09T15:34:41.951Z,32.60
2018-02-09T15:37:09.451Z,33.10
2018-02-09T15:39:37.821Z,34.03
2018-02-09T15:42:05.415Z,35.80
2018-02-09T15:44:32.926Z,34.38
2018-02-09T15:47:01.187Z,37.88
2018-02-09T15:49:28.789Z,35.15
2018-02-09T15:51:57.062Z,38.08
2018-02-09T15:54:25.334Z,35.35
2018-02-09T15:56:53.594Z,35.35
2018-02-09T15:59:21.283Z,36.75
2018-02-09T16:01:49.547Z,34.30
2018-02-09T16:04:17.806Z,35.30
2018-02-09T16:06:45.310Z,34.33
2018-02-09T16:09:12.807Z,35.38
2018-02-09T16:11:40.306Z,34.97
2018-02-09T16:14:08.562Z,34.25
2018-02-09T16:16:36.061Z,36.00
2018-02-09T16:19:03.698Z,37.03
2018-02-09T16:21:32.079Z,36.50
2018-02-09T16:24:00.343Z,36.78
2018-02-09T16:26:27.881Z,36.13
2018-02-09T16:28:55.355Z,35.78
2018-02-09T16:31:22.851Z,39.05
2018-02-09T16:33:50.358Z,33.88
2018-02-09T16:36:17.874Z,35.08
2018-02-09T16:38:45.417Z,35.33
2018-02-09T16:41:12.892Z,32.92
2018-02-09T16:43:40.393Z,32.88
2018-02-09T16:46:09.411Z,32.95
2018-02-09T16:48:37.671Z,32.33
2018-02-09T16:51:05.352Z,32.53
2018-02-09T16:53:33.607Z,30.83
2018-02-09T16:56:01.100Z,32.50
2018-02-09T16:58:28.598Z,33.40
2018-02-09T17:00:56.095Z,29.95
2018-02-09T17:03:24.358Z,29.98
2018-02-09T17:05:51.863Z,30.67
2018-02-09T17:08:19.502Z,32.22
2018-02-09T17:10:47.758Z,32.53
2018-02-09T17:13:15.258Z,33.97
2018-02-09T17:15:42.762Z,33.42
2018-02-09T17:18:10.254Z,34.83
2018-02-09T17:20:38.727Z,34.25
2018-02-09T17:23:06.982Z,33.00
2018-02-09T17:25:34.499Z,30.75
2018-02-09T17:28:02.003Z,32.22
2018-02-09T17:30:29.789Z,31.23
2018-02-09T17:32:57.303Z,30.45
2018-02-09T17:35:24.796Z,27.27
2018-02-09T17:37:53.150Z,29.05
2018-02-09T17:40:20.769Z,30.60
2018-02-09T17:42:48.637Z,31.52
2018-02-09T17:45:16.233Z,31.05
2018-02-09T17:47:43.878Z,32.50
2018-02-09T17:50:11.479Z,31.37
2018-02-09T17:52:39.857Z,32.83
2018-02-09T17:55:07.411Z,32.13
2018-02-09T17:57:35.777Z,32.88
2018-02-09T18:00:03.457Z,33.90
2018-02-09T18:02:31.857Z,31.35
2018-02-09T18:04:59.488Z,28.80
2018-02-09T18:07:27.884Z,31.15
2018-02-09T18:09:56.306Z,29.70
2018-02-09T18:12:23.909Z,39.97
2018-02-09T18:14:51.454Z,37.42
2018-02-09T18:17:19.089Z,33.42
2018-02-09T18:19:46.667Z,47.45
2018-02-09T18:22:14.278Z,46.85
2018-02-09T18:24:41.884Z,46.60
2018-02-09T18:27:10.103Z,47.85
2018-02-09T18:29:38.618Z,28.20
2018-02-09T18:32:06.206Z,28.30
2018-02-09T18:34:34.252Z,30.20
2018-02-09T18:37:01.958Z,29.12
2018-02-09T18:39:29.675Z,29.73
2018-02-09T18:41:57.290Z,28.92
2018-02-09T18:44:25.903Z,27.95
2018-02-09T18:46:53.526Z,29.75
2018-02-09T18:49:21.902Z,28.12
2018-02-09T18:51:49.497Z,27.95
2018-02-09T18:54:17.635Z,27.87
2018-02-09T18:56:45.247Z,29.73
2018-02-09T18:59:12.851Z,27.83
2018-02-09T19:01:41.255Z,31.17
2018-02-09T19:04:09.612Z,28.80
2018-02-09T19:06:37.219Z,29.35
2018-02-09T19:09:05.995Z,28.92
2018-02-09T19:11:34.274Z,29.17
2018-02-09T19:14:02.555Z,28.98
2018-02-09T19:16:30.849Z,26.00
2018-02-09T19:18:58.339Z,25.70
2018-02-09T19:21:25.835Z,27.08
2018-02-09T19:23:54.112Z,25.92
2018-02-09T19:26:22.391Z,32.15
2018-02-09T19:28:50.686Z,30.48
2018-02-09T19:31:18.197Z,30.27
2018-02-09T19:33:45.731Z,28.33
2018-02-09T19:36:13.226Z,30.30
2018-02-09T19:38:40.731Z,28.77
2018-02-09T19:41:08.274Z,32.67
2018-02-09T19:43:35.854Z,32.55
2018-02-09T19:46:03.479Z,29.40
2018-02-09T19:48:31.779Z,31.35
2018-02-09T19:50:59.465Z,32.38
2018-02-09T19:53:27.124Z,30.55
2018-02-09T19:55:54.649Z,30.75
2018-02-09T19:58:22.950Z,30.25
2018-02-09T20:00:50.473Z,30.17
2018-02-09T20:03:18.973Z,30.10
2018-02-09T20:05:46.515Z,31.12
2018-02-09T20:08:14.791Z,30.90
2018-02-09T20:10:43.051Z,32.58
2018-02-09T20:13:10.570Z,31.15
2018-02-09T20:15:38.219Z,34.00
2018-02-09T20:18:05.803Z,31.08
2018-02-09T20:20:33.306Z,30.62
2018-02-09T20:23:01.578Z,30.65
2018-02-09T20:25:29.102Z,32.90
2018-02-09T20:27:56.630Z,32.28
2018-02-09T20:30:24.127Z,33.80
2018-02-09T20:32:51.635Z,32.88
2018-02-09T20:35:19.134Z,31.87
2018-02-09T20:37:46.657Z,33.05
2018-02-09T20:40:14.172Z,31.33
2018-02-09T20:42:41.691Z,33.35
2018-02-09T20:45:09.198Z,34.58
2018-02-09T20:47:37.481Z,35.50
2018-02-09T20:50:05.057Z,33.88
2018-02-09T20:52:32.594Z,34.88
2018-02-09T20:55:00.103Z,35.78
2018-02-09T20:57:27.852Z,36.50
2018-02-09T20:59:55.402Z,37.05
2018-02-09T21:02:22.916Z,36.05
2018-02-09T21:04:50.447Z,36.33
2018-02-09T21:07:17.954Z,37.92
2018-02-09T21:09:45.472Z,36.05
2018-02-09T21:12:12.978Z,37.03
2018-02-09T21:14:41.303Z,34.90
2018-02-09T21:17:08.809Z,36.10
2018-02-09T21:19:37.091Z,37.75
2018-02-09T21:22:05.378Z,36.30
2018-02-09T21:24:33.705Z,36.33
2018-02-09T21:27:01.210Z,36.33
2018-02-09T21:29:29.558Z,34.97
2018-02-09T21:31:57.058Z,34.85
2018-02-09T21:34:24.558Z,34.20
2018-02-09T21:36:52.058Z,39.50
2018-02-09T21:39:20.330Z,36.22
2018-02-09T21:41:48.593Z,37.35
2018-02-09T21:44:16.089Z,36.08
2018-02-09T21:46:43.594Z,35.08
2018-02-09T21:49:11.086Z,36.30
2018-02-09T21:51:39.354Z,38.35
2018-02-09T21:54:07.614Z,36.20
2018-02-09T21:56:35.111Z,38.58
2018-02-09T21:59:02.602Z,36.15
2018-02-09T22:01:30.114Z,37.50
2018-02-09T22:03:58.390Z,36.92
2018-02-09T22:06:26.662Z,36.80
2018-02-09T22:08:54.927Z,37.20
2018-02-09T22:11:22.426Z,34.90
2018-02-09T22:13:49.916Z,38.55
2018-02-09T22:16:17.407Z,37.38
2018-02-09T22:18:45.671Z,36.75
2018-02-09T22:21:13.175Z,36.20
2018-02-09T22:23:40.671Z,37.80
2018-02-09T22:26:08.158Z,40.05
2018-02-09T22:28:36.414Z,37.60
2018-02-09T22:31:04.110Z,37.90
2018-02-09T22:33:32.378Z,40.35
2018-02-09T22:36:00.654Z,39.72
2018-02-09T22:38:28.914Z,41.42
2018-02-09T22:40:56.415Z,37.70
2018-02-09T22:43:24.048Z,36.30
2018-02-09T22:45:52.315Z,37.90
2018-02-09T22:48:19.819Z,38.35
2018-02-09T22:50:47.310Z,39.50
2018-02-09T22:53:14.798Z,36.28
2018-02-09T22:55:43.178Z,37.90
2018-02-09T22:58:11.442Z,38.65
2018-02-09T23:00:38.944Z,38.50
2018-02-09T23:03:06.442Z,39.22
2018-02-09T23:05:33.958Z,36.92
2018-02-09T23:08:01.457Z,38.38
2018-02-09T23:23:18.186Z,37.55
2018-02-09T23:25:47.255Z,35.53
2018-02-09T23:28:14.747Z,33.85
2018-02-09T23:30:42.255Z,34.00
2018-02-09T23:33:09.758Z,33.17
2018-02-09T23:35:38.027Z,32.40
2018-02-09T23:38:06.278Z,34.15
2018-02-09T23:40:33.778Z,33.90
2018-02-09T23:43:01.426Z,34.15
2018-02-09T23:45:29.691Z,34.60
2018-02-09T23:47:57.186Z,33.30
2018-02-09T23:50:24.692Z,34.67
2018-02-09T23:52:52.390Z,31.45
2018-02-09T23:55:19.891Z,32.38
2018-02-09T23:57:47.499Z,35.72
